Time;durP1;ratioP1;P1;durP2;ratioP2;P2;SDS_P1;SDS_P2;PMS_P1;PMS_P2;Temp;Humidity;BMP_temperature;BMP_pressure;BME280_temperature;BME280_humidity;BME280_pressure;Samples;Min_cycle;Max_cycle;Signal;HPM_P1;HPM_P2
2023/01/10 00:04:37;;;;;;;1.20;1.00;;;7.30;99.90;;;;;;10475596;28;20231;-71
2023/01/10 00:09:41;;;;;;;3.07;1.17;;;7.30;99.90;;;;;;10456204;28;20231;-71
2023/01/10 00:14:41;;;;;;;1.33;0.80;;;7.20;99.90;;;;;;10465700;28;20217;-71
2023/01/10 00:19:42;;;;;;;1.40;1.00;;;7.20;99.90;;;;;;10483641;28;20847;-71
2023/01/10 00:24:42;;;;;;;2.70;1.17;;;7.20;99.90;;;;;;10468484;28;20220;-72
2023/01/10 00:29:43;;;;;;;1.57;0.80;;;7.20;99.90;;;;;;10470053;28;20250;-70
2023/01/10 00:34:45;;;;;;;1.70;1.00;;;7.20;99.90;;;;;;10467380;28;20227;-71
2023/01/10 00:39:45;;;;;;;1.93;0.90;;;7.10;99.90;;;;;;10472136;28;20229;-71
2023/01/10 00:44:46;;;;;;;1.17;0.90;;;7.00;99.90;;;;;;10488080;28;20222;-74
2023/01/10 00:49:46;;;;;;;0.70;0.67;;;6.90;99.90;;;;;;10467420;28;20300;-72
2023/01/10 00:54:47;;;;;;;0.90;0.50;;;6.80;99.90;;;;;;10478582;28;20231;-74
2023/01/10 00:59:48;;;;;;;1.33;0.53;;;6.80;99.90;;;;;;10473213;28;20248;-75
2023/01/10 01:04:48;;;;;;;0.90;0.77;;;6.80;99.90;;;;;;10474893;28;20227;-74
2023/01/10 01:15:08;;;;;;;1.23;0.57;;;6.60;99.90;;;;;;10466853;28;20211;-73
2023/01/10 01:20:10;;;;;;;1.00;0.60;;;6.60;99.90;;;;;;10503970;28;20191;-75
2023/01/10 01:25:10;;;;;;;2.20;0.70;;;6.70;99.90;;;;;;10477762;28;20184;-75
2023/01/10 01:30:11;;;;;;;1.70;0.63;;;6.70;99.90;;;;;;10461607;28;20233;-74
2023/01/10 01:35:14;;;;;;;0.90;0.40;;;6.60;99.90;;;;;;10479954;28;20183;-76
2023/01/10 01:40:18;;;;;;;0.97;0.57;;;6.50;99.90;;;;;;10470452;28;20192;-74
2023/01/10 01:45:33;;;;;;;0.60;0.30;;;6.40;99.90;;;;;;10478177;28;20215;-74
2023/01/10 01:50:42;;;;;;;1.37;0.67;;;6.40;99.90;;;;;;10468630;28;20694;-74
2023/01/10 01:55:45;;;;;;;0.50;0.50;;;6.40;99.90;;;;;;10462283;28;20289;-73
2023/01/10 02:00:45;;;;;;;1.23;0.57;;;6.40;99.90;;;;;;10459689;28;20311;-68
2023/01/10 02:05:46;;;;;;;1.77;0.67;;;6.50;99.90;;;;;;10466416;28;20318;-68
2023/01/10 02:11:08;;;;;;;0.33;0.30;;;6.60;99.90;;;;;;10473908;28;20219;-68
2023/01/10 02:16:09;;;;;;;0.40;0.40;;;6.60;99.90;;;;;;10463382;28;20231;-69
2023/01/10 02:21:15;;;;;;;0.67;0.40;;;6.60;99.90;;;;;;10484841;28;20235;-68
2023/01/10 02:26:46;;;;;;;0.60;0.60;;;6.60;99.90;;;;;;10464128;28;20251;-67
2023/01/10 02:31:59;;;;;;;1.20;0.67;;;6.70;99.90;;;;;;10460486;28;20242;-67
2023/01/10 02:37:13;;;;;;;1.80;0.50;;;6.70;99.90;;;;;;10454850;28;20680;-67
2023/01/10 02:43:03;;;;;;;3.07;0.70;;;6.70;99.90;;;;;;10488533;28;20277;-69
2023/01/10 02:48:04;;;;;;;1.37;0.60;;;6.70;99.90;;;;;;10382092;28;20869;-68
2023/01/10 02:53:21;;;;;;;1.60;0.63;;;6.70;99.90;;;;;;10473336;28;20219;-69
2023/01/10 02:58:39;;;;;;;3.40;0.60;;;6.70;99.90;;;;;;10476268;28;20297;-68
2023/01/10 03:04:00;;;;;;;4.57;1.17;;;6.70;99.90;;;;;;10469465;28;20210;-69
2023/01/10 03:09:26;;;;;;;3.70;0.93;;;6.70;99.90;;;;;;10474256;28;20683;-68
2023/01/10 03:14:29;;;;;;;2.97;0.90;;;6.70;99.90;;;;;;10480322;28;20269;-69
2023/01/10 03:19:40;;;;;;;4.37;0.83;;;6.70;99.90;;;;;;10477563;28;20663;-68
2023/01/10 03:24:50;;;;;;;1.27;0.93;;;6.60;99.90;;;;;;10464554;28;20266;-69
2023/01/10 03:29:51;;;;;;;4.20;1.10;;;6.40;99.90;;;;;;10472153;28;20223;-68
2023/01/10 03:34:53;;;;;;;3.67;1.10;;;6.30;99.90;;;;;;10471692;28;20588;-67
2023/01/10 03:40:06;;;;;;;1.63;0.60;;;6.30;99.90;;;;;;10489941;28;20223;-68
2023/01/10 03:45:12;;;;;;;2.13;1.00;;;6.40;99.90;;;;;;10469114;28;20235;-68
2023/01/10 03:50:18;;;;;;;2.80;1.00;;;6.40;99.90;;;;;;10473159;28;20216;-68
2023/01/10 03:55:22;;;;;;;2.07;0.90;;;6.40;99.90;;;;;;10481116;28;20199;-67
2023/01/10 04:00:23;;;;;;;3.57;1.20;;;6.50;99.90;;;;;;10486633;28;20183;-67
2023/01/10 04:05:25;;;;;;;3.47;1.20;;;6.40;99.90;;;;;;10466822;28;20227;-67
2023/01/10 04:10:26;;;;;;;2.67;0.90;;;6.40;99.90;;;;;;10447793;28;20232;-69
2023/01/10 04:15:26;;;;;;;3.60;0.90;;;6.40;99.90;;;;;;10469348;28;20220;-68
2023/01/10 04:20:27;;;;;;;3.47;0.90;;;6.40;99.90;;;;;;10459498;28;20639;-67
2023/01/10 04:25:27;;;;;;;4.17;1.00;;;6.40;99.90;;;;;;10486106;28;20277;-67
2023/01/10 04:30:28;;;;;;;3.00;1.17;;;6.40;99.90;;;;;;10470120;28;20223;-69
2023/01/10 04:35:28;;;;;;;3.53;1.37;;;6.40;99.90;;;;;;10473928;28;20695;-69
2023/01/10 04:40:29;;;;;;;3.97;1.10;;;6.50;99.90;;;;;;10453335;28;20212;-68
2023/01/10 04:45:29;;;;;;;4.53;1.23;;;6.50;99.90;;;;;;10485475;28;20224;-67
2023/01/10 04:50:30;;;;;;;5.13;1.50;;;6.50;99.90;;;;;;10476465;28;20703;-67
2023/01/10 04:55:31;;;;;;;5.93;1.20;;;6.40;99.90;;;;;;10467090;28;20281;-68
2023/01/10 05:00:32;;;;;;;6.10;1.97;;;6.40;99.90;;;;;;10460052;28;20241;-69
2023/01/10 05:05:33;;;;;;;4.83;1.50;;;6.50;99.90;;;;;;10467862;28;20315;-72
2023/01/10 05:10:33;;;;;;;5.73;1.57;;;6.40;99.90;;;;;;10472343;28;20622;-71
2023/01/10 05:15:34;;;;;;;5.10;1.80;;;6.40;99.90;;;;;;10468117;28;20306;-74
2023/01/10 05:20:35;;;;;;;5.90;1.87;;;6.40;99.90;;;;;;10463372;28;20289;-71
2023/01/10 05:25:35;;;;;;;7.43;2.07;;;6.30;99.90;;;;;;10481350;28;20218;-68
2023/01/10 05:30:36;;;;;;;8.70;1.87;;;6.30;99.90;;;;;;10493214;28;20229;-68
2023/01/10 05:35:36;;;;;;;4.47;1.90;;;6.30;99.90;;;;;;10498599;28;20223;-69
2023/01/10 05:40:37;;;;;;;12.10;4.53;;;6.30;99.90;;;;;;10478308;28;20337;-71
2023/01/10 05:45:38;;;;;;;6.80;2.00;;;6.30;99.90;;;;;;10485954;28;20227;-70
2023/01/10 05:50:38;;;;;;;4.97;2.10;;;6.40;99.90;;;;;;10477704;28;20224;-71
2023/01/10 05:55:39;;;;;;;8.13;2.70;;;6.30;99.90;;;;;;10445817;28;20223;-71
2023/01/10 06:00:40;;;;;;;6.80;3.30;;;6.40;99.90;;;;;;10475777;28;20217;-66
2023/01/10 06:05:40;;;;;;;7.80;2.50;;;6.40;99.90;;;;;;10473530;28;20754;-68
2023/01/10 06:10:42;;;;;;;10.63;4.47;;;6.40;99.90;;;;;;10463656;28;20600;-67
2023/01/10 06:15:42;;;;;;;14.43;5.60;;;6.40;99.90;;;;;;10462102;28;20232;-67
2023/01/10 06:20:43;;;;;;;15.60;6.83;;;6.40;99.90;;;;;;10463710;28;20236;-67
2023/01/10 06:25:44;;;;;;;11.57;3.90;;;6.40;99.90;;;;;;10476351;28;20225;-67
2023/01/10 06:30:45;;;;;;;5.47;2.20;;;6.30;99.90;;;;;;10469862;28;20221;-72
2023/01/10 06:35:47;;;;;;;9.53;1.93;;;6.30;99.90;;;;;;10471355;28;20277;-72
2023/01/10 06:40:47;;;;;;;9.00;2.10;;;6.30;99.90;;;;;;10446131;28;20226;-73
2023/01/10 06:45:48;;;;;;;5.37;1.80;;;6.30;99.90;;;;;;10496549;28;20221;-73
2023/01/10 06:50:49;;;;;;;11.00;2.60;;;6.40;99.90;;;;;;10459357;28;20311;-73
2023/01/10 06:55:49;;;;;;;9.47;2.30;;;6.30;99.90;;;;;;10468745;28;20219;-72
2023/01/10 07:00:50;;;;;;;9.87;2.30;;;6.30;99.90;;;;;;10475784;28;20702;-71
2023/01/10 07:05:51;;;;;;;9.67;2.33;;;6.40;99.90;;;;;;10474201;28;20242;-72
2023/01/10 07:10:52;;;;;;;7.80;2.30;;;6.30;99.90;;;;;;10488082;28;20271;-72
2023/01/10 07:16:04;;;;;;;9.80;2.23;;;6.20;99.90;;;;;;10494578;28;20216;-72
2023/01/10 07:21:05;;;;;;;6.73;2.20;;;6.10;99.90;;;;;;10472866;28;20211;-73
2023/01/10 07:26:08;;;;;;;10.43;2.33;;;5.90;99.90;;;;;;10470087;28;20215;-71
2023/01/10 07:31:10;;;;;;;11.20;2.87;;;5.70;99.90;;;;;;10471879;28;20610;-71
2023/01/10 07:36:10;;;;;;;15.47;2.73;;;5.70;99.90;;;;;;10452500;28;20688;-72
2023/01/10 07:41:11;;;;;;;11.30;2.77;;;5.60;99.90;;;;;;10477664;28;20308;-72
2023/01/10 07:46:13;;;;;;;12.03;3.10;;;5.60;99.90;;;;;;10468588;28;20223;-72
2023/01/10 07:51:14;;;;;;;13.13;3.40;;;5.60;99.90;;;;;;10459148;28;20207;-72
2023/01/10 07:56:14;;;;;;;10.17;2.90;;;5.70;99.90;;;;;;10478505;28;20734;-73
2023/01/10 08:01:15;;;;;;;13.23;3.13;;;6.00;99.90;;;;;;10482254;28;20249;-73
2023/01/10 08:06:15;;;;;;;11.27;3.07;;;6.20;99.90;;;;;;10486809;28;20218;-72
2023/01/10 08:11:16;;;;;;;10.20;3.27;;;6.30;99.90;;;;;;10486853;28;20235;-73
2023/01/10 08:16:19;;;;;;;13.33;3.10;;;6.60;99.90;;;;;;10454499;28;20211;-74
2023/01/10 08:21:20;;;;;;;10.80;2.90;;;6.90;99.90;;;;;;10465111;28;20246;-73
2023/01/10 08:26:20;;;;;;;18.63;3.00;;;7.00;99.90;;;;;;10471557;28;20310;-72
2023/01/10 08:31:22;;;;;;;13.73;3.40;;;7.00;99.90;;;;;;10502218;28;20580;-72
2023/01/10 08:36:23;;;;;;;12.60;3.20;;;7.20;99.90;;;;;;10478028;28;20230;-73
2023/01/10 08:41:23;;;;;;;13.17;3.33;;;7.50;99.90;;;;;;10485544;28;20562;-73
2023/01/10 08:46:24;;;;;;;14.03;2.90;;;7.80;99.90;;;;;;10501281;28;20297;-74
2023/01/10 08:51:25;;;;;;;14.00;3.13;;;9.00;99.90;;;;;;10488313;28;20594;-73
2023/01/10 08:56:25;;;;;;;10.00;2.90;;;9.60;99.90;;;;;;10492203;28;20255;-73
2023/01/10 09:01:26;;;;;;;9.90;2.90;;;12.50;99.90;;;;;;10478005;28;20226;-72
2023/01/10 09:06:26;;;;;;;9.37;2.60;;;15.60;99.90;;;;;;10480068;28;20265;-71
2023/01/10 09:11:28;;;;;;;11.80;3.33;;;16.80;99.90;;;;;;10485767;28;20222;-71
2023/01/10 09:16:29;;;;;;;12.13;3.20;;;15.30;99.90;;;;;;10509730;28;20245;-72
2023/01/10 09:21:29;;;;;;;9.97;2.90;;;13.30;99.90;;;;;;10469324;28;20242;-72
2023/01/10 09:26:30;;;;;;;11.30;2.80;;;11.80;99.90;;;;;;10492475;28;20228;-71
2023/01/10 09:31:31;;;;;;;11.60;2.97;;;11.40;99.90;;;;;;10494798;28;20210;-73
2023/01/10 09:36:31;;;;;;;10.53;2.80;;;10.80;99.90;;;;;;10477869;28;20222;-72
2023/01/10 09:42:09;;;;;;;10.37;2.70;;;10.20;99.90;;;;;;10468536;28;20227;-72
2023/01/10 09:47:54;;;;;;;11.43;2.37;;;11.10;99.90;;;;;;10481143;28;20753;-72
2023/01/10 09:53:04;;;;;;;10.53;2.87;;;11.60;99.90;;;;;;10482011;28;20293;-73
2023/01/10 09:58:15;;;;;;;9.37;3.20;;;10.80;99.90;;;;;;10472570;28;20321;-73
2023/01/10 10:03:53;;;;;;;9.07;2.73;;;10.00;99.90;;;;;;10467016;28;20229;-73
2023/01/10 10:08:56;;;;;;;10.40;2.07;;;9.70;99.90;;;;;;10475643;28;20232;-71
2023/01/10 10:14:11;;;;;;;10.30;2.80;;;9.70;99.90;;;;;;10485915;28;20229;-71
2023/01/10 10:19:40;;;;;;;10.03;2.47;;;9.70;99.90;;;;;;10481027;28;20226;-71
2023/01/10 10:25:02;;;;;;;10.30;2.87;;;9.60;99.90;;;;;;10470662;28;20222;-71
2023/01/10 10:30:27;;;;;;;12.27;3.10;;;9.40;99.90;;;;;;10492662;28;20233;-71
2023/01/10 10:35:44;;;;;;;12.30;2.50;;;9.30;99.90;;;;;;10490112;28;20681;-72
2023/01/10 10:40:47;;;;;;;13.20;2.97;;;9.20;99.90;;;;;;10482855;28;20313;-72
2023/01/10 10:45:59;;;;;;;10.07;2.83;;;9.10;99.90;;;;;;10497100;28;20216;-71
2023/01/10 10:51:27;;;;;;;13.07;3.33;;;9.10;99.90;;;;;;10468924;28;20231;-73
2023/01/10 10:56:29;;;;;;;12.63;2.93;;;9.10;99.90;;;;;;10476275;28;20321;-71
2023/01/10 11:01:30;;;;;;;8.67;2.93;;;9.10;99.90;;;;;;10479046;28;20326;-71
2023/01/10 11:06:33;;;;;;;13.53;3.20;;;9.00;99.90;;;;;;10481200;28;20758;-72
2023/01/10 11:11:43;;;;;;;9.27;2.93;;;8.90;99.90;;;;;;10447711;28;20222;-71
2023/01/10 11:16:44;;;;;;;11.17;2.63;;;8.80;99.90;;;;;;10480879;28;20231;-72
2023/01/10 11:21:58;;;;;;;11.93;3.10;;;8.80;99.90;;;;;;10463838;28;20930;-72
2023/01/10 11:27:04;;;;;;;11.77;2.87;;;8.90;99.90;;;;;;10482314;28;20641;-72
2023/01/10 11:32:15;;;;;;;14.07;3.50;;;9.00;99.90;;;;;;10501541;28;20292;-72
2023/01/10 11:37:16;;;;;;;12.27;3.00;;;9.00;99.90;;;;;;10475280;28;20222;-72
2023/01/10 11:42:23;;;;;;;12.07;2.87;;;9.00;99.90;;;;;;10488633;28;20279;-72
2023/01/10 11:47:24;;;;;;;10.73;3.17;;;9.10;99.90;;;;;;10472738;28;20785;-74
2023/01/10 11:52:31;;;;;;;11.37;3.03;;;9.40;99.90;;;;;;10473723;28;20305;-72
2023/01/10 11:57:32;;;;;;;9.57;3.40;;;9.60;99.90;;;;;;10504173;28;20234;-73
2023/01/10 12:02:34;;;;;;;16.67;3.93;;;9.70;99.90;;;;;;10478992;28;20222;-72
2023/01/10 12:07:57;;;;;;;11.10;3.13;;;9.60;99.90;;;;;;10474248;28;20280;-73
2023/01/10 12:13:13;;;;;;;14.00;3.33;;;9.40;99.90;;;;;;10508139;28;20262;-73
2023/01/10 12:18:16;;;;;;;10.83;3.03;;;9.20;99.90;;;;;;10463433;28;20232;-72
2023/01/10 12:23:20;;;;;;;15.53;3.87;;;9.10;99.90;;;;;;10467936;28;20453;-72
2023/01/10 12:28:26;;;;;;;10.30;2.97;;;9.10;99.90;;;;;;10475089;28;20226;-72
2023/01/10 12:33:45;;;;;;;15.27;3.47;;;9.20;99.90;;;;;;10483151;28;20297;-71
2023/01/10 12:39:15;;;;;;;11.53;3.80;;;9.10;99.90;;;;;;10471170;28;20239;-72
2023/01/10 12:44:20;;;;;;;12.17;2.73;;;9.20;99.90;;;;;;10463269;28;20781;-71
2023/01/10 12:49:45;;;;;;;12.80;3.33;;;9.50;99.90;;;;;;10476354;28;20255;-72
2023/01/10 12:54:47;;;;;;;14.07;3.00;;;9.70;99.90;;;;;;10503706;28;20774;-73
2023/01/10 12:59:48;;;;;;;11.43;2.80;;;9.70;99.90;;;;;;10481125;28;20224;-71
2023/01/10 13:04:54;;;;;;;14.23;3.30;;;9.60;99.90;;;;;;10487024;28;20221;-71
2023/01/10 13:09:55;;;;;;;15.27;3.13;;;9.40;99.90;;;;;;10455917;28;20618;-70
2023/01/10 13:15:22;;;;;;;16.70;3.77;;;9.30;99.90;;;;;;10480900;28;20218;-72
2023/01/10 13:20:36;;;;;;;18.13;3.43;;;9.30;99.90;;;;;;10478621;28;20360;-71
2023/01/10 13:25:38;;;;;;;14.70;3.10;;;9.30;99.90;;;;;;10468410;28;20587;-71
2023/01/10 13:30:42;;;;;;;13.00;2.80;;;9.50;99.90;;;;;;10477849;28;20686;-71
2023/01/10 13:35:43;;;;;;;12.07;2.97;;;9.40;99.90;;;;;;10475467;28;20774;-71
2023/01/10 13:41:04;;;;;;;8.00;2.80;;;9.40;99.90;;;;;;10481537;28;20226;-70
2023/01/10 13:46:13;;;;;;;14.70;3.10;;;9.50;99.90;;;;;;10454516;28;20771;-72
2023/01/10 13:51:18;;;;;;;13.97;2.97;;;9.40;99.90;;;;;;10481219;28;20223;-72
2023/01/10 13:56:47;;;;;;;9.53;3.23;;;9.40;99.90;;;;;;10475856;28;20275;-71
2023/01/10 14:07:29;;;;;;;11.77;2.50;;;8.80;99.90;;;;;;10488419;28;20225;-68
2023/01/10 14:12:35;;;;;;;10.53;2.93;;;8.70;99.90;;;;;;10471290;28;20312;-71
2023/01/10 14:17:37;;;;;;;13.30;2.77;;;8.60;99.90;;;;;;10487589;28;20217;-71
2023/01/10 14:22:40;;;;;;;12.47;2.83;;;8.60;99.90;;;;;;10478313;28;20238;-71
2023/01/10 14:27:49;;;;;;;18.03;3.60;;;8.60;99.90;;;;;;10479750;28;20233;-70
2023/01/10 14:32:53;;;;;;;13.70;3.23;;;8.60;99.90;;;;;;10476585;28;20223;-71
2023/01/10 14:37:57;;;;;;;10.50;2.90;;;8.60;99.90;;;;;;10486002;28;20761;-70
2023/01/10 14:43:02;;;;;;;14.57;3.03;;;8.50;99.90;;;;;;10472299;28;20563;-71
2023/01/10 14:48:40;;;;;;;13.73;3.37;;;8.50;99.90;;;;;;10463470;28;20277;-72
2023/01/10 14:53:41;;;;;;;13.53;3.43;;;8.40;99.90;;;;;;10395711;28;20262;-73
2023/01/10 14:58:41;;;;;;;14.20;2.90;;;8.30;99.90;;;;;;10443662;28;20254;-73
2023/01/10 15:03:46;;;;;;;11.17;2.73;;;8.10;99.90;;;;;;10448555;28;20247;-72
2023/01/10 15:08:55;;;;;;;13.57;3.40;;;8.10;99.90;;;;;;10473635;28;20696;-72
2023/01/10 15:14:03;;;;;;;15.23;3.60;;;8.00;99.90;;;;;;10482163;28;20215;-72
2023/01/10 15:19:09;;;;;;;15.00;3.33;;;7.90;99.90;;;;;;10477882;28;20309;-72
2023/01/10 15:24:32;;;;;;;10.10;3.20;;;7.80;99.90;;;;;;10478317;28;20215;-72
2023/01/10 15:29:33;;;;;;;16.00;3.70;;;7.70;99.90;;;;;;10479962;28;20285;-74
2023/01/10 15:34:35;;;;;;;15.47;4.10;;;7.70;99.90;;;;;;10497232;28;20257;-72
2023/01/10 15:39:39;;;;;;;13.23;2.87;;;7.70;99.90;;;;;;10465875;28;20608;-71
2023/01/10 15:44:51;;;;;;;13.40;3.40;;;7.70;99.90;;;;;;10455008;28;20242;-74
2023/01/10 15:49:53;;;;;;;16.53;3.20;;;7.50;99.90;;;;;;10486423;28;20221;-72
2023/01/10 15:54:55;;;;;;;13.90;3.00;;;7.50;99.90;;;;;;10475444;28;20224;-73
2023/01/10 15:59:57;;;;;;;18.20;3.43;;;7.50;99.90;;;;;;10462804;28;20215;-72
2023/01/10 16:05:07;;;;;;;13.63;2.83;;;7.40;99.90;;;;;;10479536;28;20578;-72
2023/01/10 16:10:17;;;;;;;13.67;3.00;;;7.40;99.90;;;;;;10474170;28;20656;-73
2023/01/10 16:15:21;;;;;;;10.80;2.67;;;7.40;99.90;;;;;;10479078;28;20248;-72
2023/01/10 16:20:31;;;;;;;10.80;3.00;;;7.40;99.90;;;;;;10487856;28;20268;-73
2023/01/10 16:25:36;;;;;;;8.60;2.27;;;7.30;99.90;;;;;;10458940;28;20224;-73
2023/01/10 16:30:41;;;;;;;9.50;2.87;;;7.30;99.90;;;;;;10478708;28;20235;-72
2023/01/10 16:35:46;;;;;;;10.00;2.37;;;7.40;99.90;;;;;;10489906;28;20235;-73
2023/01/10 16:40:56;;;;;;;11.27;2.60;;;7.30;99.90;;;;;;10474791;28;20227;-72
2023/01/10 16:45:58;;;;;;;11.17;2.57;;;7.30;99.90;;;;;;10486387;28;20281;-72
2023/01/10 16:51:15;;;;;;;13.17;2.87;;;7.40;99.90;;;;;;10491957;28;20941;-73
2023/01/10 16:56:21;;;;;;;9.30;2.80;;;7.30;99.90;;;;;;10476431;28;20320;-74
2023/01/10 17:01:25;;;;;;;11.47;2.80;;;7.30;99.90;;;;;;10488879;28;20285;-72
2023/01/10 17:06:27;;;;;;;10.53;2.90;;;7.30;99.90;;;;;;10473942;28;20339;-72
2023/01/10 17:11:36;;;;;;;14.60;2.30;;;7.40;99.90;;;;;;10482858;28;20272;-72
2023/01/10 17:16:36;;;;;;;9.53;2.63;;;7.30;99.90;;;;;;10477431;28;20223;-72
2023/01/10 17:21:37;;;;;;;5.33;1.80;;;7.30;99.90;;;;;;10468689;28;20279;-71
2023/01/10 17:26:40;;;;;;;8.00;2.30;;;7.40;99.90;;;;;;10468944;28;20555;-73
2023/01/10 17:31:41;;;;;;;10.13;2.50;;;7.40;99.90;;;;;;10462122;28;20216;-72
2023/01/10 17:36:41;;;;;;;10.93;2.70;;;7.40;99.90;;;;;;10479848;28;20592;-72
2023/01/10 17:41:43;;;;;;;10.93;3.20;;;7.40;99.90;;;;;;10481790;28;20584;-72
2023/01/10 17:46:46;;;;;;;9.47;2.47;;;7.40;99.90;;;;;;10454235;28;20721;-72
2023/01/10 17:51:47;;;;;;;9.87;2.43;;;7.40;99.90;;;;;;10460643;28;20231;-71
2023/01/10 17:56:47;;;;;;;8.63;2.17;;;7.30;99.90;;;;;;10454606;28;20231;-70
2023/01/10 18:01:48;;;;;;;9.90;2.27;;;7.30;99.90;;;;;;10474646;28;20302;-69
2023/01/10 18:06:51;;;;;;;9.13;2.30;;;7.30;99.90;;;;;;10476956;28;20230;-71
2023/01/10 18:11:51;;;;;;;5.73;2.10;;;7.30;99.90;;;;;;10491315;28;20219;-71
2023/01/10 18:16:52;;;;;;;7.77;2.33;;;7.30;99.90;;;;;;10462430;28;20739;-72
2023/01/10 18:21:52;;;;;;;10.50;2.53;;;7.30;99.90;;;;;;10461535;28;20207;-70
2023/01/10 18:26:53;;;;;;;10.00;2.57;;;7.40;99.90;;;;;;10491222;28;20311;-70
2023/01/10 18:31:57;;;;;;;8.73;2.40;;;7.40;99.90;;;;;;10479095;28;20779;-71
2023/01/10 18:36:57;;;;;;;4.30;1.73;;;7.40;99.90;;;;;;10465152;28;20303;-70
2023/01/10 18:41:58;;;;;;;6.03;2.43;;;7.50;99.90;;;;;;10468223;28;20279;-71
2023/01/10 18:47:00;;;;;;;6.97;2.50;;;7.50;99.90;;;;;;10468394;28;20242;-70
2023/01/10 18:52:02;;;;;;;6.77;2.33;;;7.50;99.90;;;;;;10487944;28;20304;-71
2023/01/10 18:57:02;;;;;;;6.67;2.03;;;7.50;99.90;;;;;;10487643;28;20310;-71
2023/01/10 19:02:08;;;;;;;6.33;2.23;;;7.50;99.90;;;;;;10487581;28;20262;-72
2023/01/10 19:07:09;;;;;;;9.37;2.67;;;7.50;99.90;;;;;;10455157;28;20219;-73
2023/01/10 19:12:10;;;;;;;11.00;2.40;;;7.40;99.90;;;;;;10480632;28;20230;-73
2023/01/10 19:17:10;;;;;;;9.80;2.07;;;7.30;99.90;;;;;;10462420;28;20264;-70
2023/01/10 19:22:11;;;;;;;7.90;2.37;;;7.30;99.90;;;;;;10473519;28;20691;-71
2023/01/10 19:27:11;;;;;;;7.43;2.10;;;7.20;99.90;;;;;;10476170;28;20313;-72
2023/01/10 19:32:12;;;;;;;7.20;2.47;;;7.10;99.90;;;;;;10455526;28;20650;-72
2023/01/10 19:37:13;;;;;;;5.90;2.37;;;7.00;99.90;;;;;;10447648;28;20227;-72
2023/01/10 19:42:13;;;;;;;6.70;2.20;;;7.00;99.90;;;;;;10470558;28;20241;-72
2023/01/10 19:47:14;;;;;;;7.93;2.47;;;6.90;99.90;;;;;;10472603;28;20291;-71
2023/01/10 19:52:15;;;;;;;7.90;2.50;;;6.80;99.90;;;;;;10463139;28;20599;-72
2023/01/10 19:57:15;;;;;;;8.07;2.50;;;6.80;99.90;;;;;;10469564;28;20229;-73
2023/01/10 20:02:17;;;;;;;7.73;2.57;;;6.70;99.90;;;;;;10453625;28;20309;-73
2023/01/10 20:07:18;;;;;;;7.17;2.00;;;6.60;99.90;;;;;;10460089;28;20668;-73
2023/01/10 20:12:19;;;;;;;10.83;2.50;;;6.50;99.90;;;;;;10486776;28;20299;-72
2023/01/10 20:17:19;;;;;;;7.97;2.57;;;6.40;99.90;;;;;;10478508;28;20671;-72
2023/01/10 20:22:20;;;;;;;11.40;2.60;;;6.40;99.90;;;;;;10499128;28;20640;-73
2023/01/10 20:27:21;;;;;;;10.50;2.53;;;6.40;99.90;;;;;;10477603;28;20231;-73
2023/01/10 20:32:21;;;;;;;9.40;2.37;;;6.40;99.90;;;;;;10472384;28;20213;-73
2023/01/10 20:37:23;;;;;;;9.73;2.57;;;6.40;99.90;;;;;;10481855;28;20306;-72
2023/01/10 20:42:24;;;;;;;8.90;2.77;;;6.40;99.90;;;;;;10477559;28;20678;-73
2023/01/10 20:47:25;;;;;;;12.33;3.07;;;6.40;99.90;;;;;;10481148;28;20231;-72
2023/01/10 20:52:26;;;;;;;8.03;2.63;;;6.50;99.90;;;;;;10472666;28;20294;-73
2023/01/10 20:57:26;;;;;;;8.07;1.80;;;6.60;99.90;;;;;;10469215;28;20232;-73
2023/01/10 21:02:27;;;;;;;8.37;2.60;;;6.70;99.90;;;;;;10470610;28;20308;-73
2023/01/10 21:07:28;;;;;;;9.80;2.10;;;6.70;99.90;;;;;;10504777;28;20228;-71
2023/01/10 21:12:30;;;;;;;9.07;2.73;;;6.80;99.90;;;;;;10473502;28;20216;-76
2023/01/10 21:17:30;;;;;;;8.07;2.37;;;6.80;99.90;;;;;;10470205;28;20345;-76
2023/01/10 21:22:32;;;;;;;9.47;2.80;;;6.90;99.90;;;;;;10476893;28;20303;-74
2023/01/10 21:27:32;;;;;;;9.60;2.30;;;6.90;99.90;;;;;;10464620;28;20234;-73
2023/01/10 21:32:33;;;;;;;7.23;2.37;;;7.00;99.90;;;;;;10489914;28;20684;-73
2023/01/10 21:37:34;;;;;;;5.63;2.23;;;7.00;99.90;;;;;;10459697;28;20219;-70
2023/01/10 21:42:41;;;;;;;7.57;2.40;;;7.00;99.90;;;;;;10469188;28;20224;-72
2023/01/10 21:47:42;;;;;;;10.30;2.63;;;7.00;99.90;;;;;;10462735;28;20284;-73
2023/01/10 21:52:42;;;;;;;13.30;2.53;;;7.00;99.90;;;;;;10479817;28;20238;-74
2023/01/10 21:57:43;;;;;;;14.50;2.20;;;7.00;99.90;;;;;;10470053;28;20228;-74
2023/01/10 22:02:44;;;;;;;7.63;2.40;;;7.00;99.90;;;;;;10451330;28;20208;-74
2023/01/10 22:07:45;;;;;;;10.67;2.67;;;7.00;99.90;;;;;;10483445;28;20235;-74
2023/01/10 22:12:45;;;;;;;7.97;2.50;;;7.00;99.90;;;;;;10462038;28;20223;-74
2023/01/10 22:17:47;;;;;;;9.80;2.37;;;7.10;99.90;;;;;;10481120;28;20307;-77
2023/01/10 22:22:47;;;;;;;8.83;2.40;;;7.10;99.90;;;;;;10459613;28;20218;-80
2023/01/10 22:27:48;;;;;;;11.20;2.53;;;7.10;99.90;;;;;;10459671;28;20219;-75
2023/01/10 22:32:53;;;;;;;7.13;2.00;;;7.20;99.90;;;;;;10471577;28;20218;-78
2023/01/10 22:37:55;;;;;;;7.00;2.27;;;7.20;99.90;;;;;;10457290;28;20223;-79
2023/01/10 22:42:55;;;;;;;9.33;2.47;;;7.20;99.90;;;;;;10479154;28;20216;-79
2023/01/10 22:47:57;;;;;;;7.67;2.30;;;7.10;99.90;;;;;;10467341;28;20231;-79
2023/01/10 22:52:58;;;;;;;7.73;2.30;;;7.10;99.90;;;;;;10446795;28;20207;-79
2023/01/10 22:57:58;;;;;;;6.87;1.53;;;7.10;99.90;;;;;;10466350;28;20228;-78
2023/01/10 23:03:00;;;;;;;4.20;1.67;;;7.10;99.90;;;;;;10448836;28;20242;-79
2023/01/10 23:08:02;;;;;;;11.63;2.23;;;7.10;99.90;;;;;;10449188;28;20262;-79
2023/01/10 23:13:03;;;;;;;7.30;1.93;;;7.10;99.90;;;;;;10460743;28;20756;-79
2023/01/10 23:18:04;;;;;;;4.13;1.60;;;7.20;99.90;;;;;;10449802;28;20480;-78
2023/01/10 23:23:05;;;;;;;6.50;2.33;;;7.20;99.90;;;;;;10488738;28;20258;-72
2023/01/10 23:28:08;;;;;;;7.13;1.97;;;7.20;99.90;;;;;;10477514;28;20216;-73
2023/01/10 23:33:09;;;;;;;6.47;1.70;;;7.20;99.90;;;;;;10466431;28;20622;-71
2023/01/10 23:38:09;;;;;;;4.47;1.73;;;7.20;99.90;;;;;;10473746;28;20270;-72
2023/01/10 23:43:10;;;;;;;7.03;1.40;;;7.20;99.90;;;;;;10469967;28;20243;-71
2023/01/10 23:48:11;;;;;;;6.73;1.97;;;7.20;99.90;;;;;;10455767;28;20668;-71
2023/01/10 23:53:12;;;;;;;7.67;1.77;;;7.20;99.90;;;;;;10474450;28;20572;-73
2023/01/10 23:58:14;;;;;;;8.53;1.90;;;7.20;99.90;;;;;;10479480;28;20229;-73
